ZYL weather

Public forecast

Using degrees Celsius for public forecast. Weather courtesy of forecast.io.

Closest aviation weather report (METAR) to Osmany International Airport

Closest report is Lokpriya Gopinath Bordoloi International Airport, 70.3 nm (130.2 km) NNW. Retrieved 2020/08/13 14:30 UTC (34 seconds ago):

VEGT 131430Z 00000KT 3000 BR SCT020 FEW025CB BKN100 31/31 Q0999 NOSIG

Closest aviation forecast (TAF) to Osmany International Airport

Closest forecast is Silchar Airport, 60.6 nm (112.2 km) E. Retrieved 2020/08/13 12:30 UTC (2 hours ago):

TAF VEKU 130930Z 1312/1324 24005KT 6000 SCT030 SCT120 TEMPO 1316/1320 07005KT 4000 RABR BKN025 FEWTCU030 BKN090 BECMG1321/1323 09005KT 6000 BKN020 BKN090